MapTableWeb Map

Choose a state:
Locations above flood stage
(43 streamgages are currently reporting water levels above the National Weather Service defined flood stage)
USGS
station
ID
USGS station name NWS
flood
stage
(ft)
Most recent
stage
(ft)
Most recent
flow
(cfs)
Historical
peaks
(cfs)
Most recent
local
date/time
NWS
station
ID
02244040ST. JOHNS R AT BUFFALO BLUFF NEAR SATSUMA, FL 2.5 11.55 -2,700 26,300 2015-04-19 02:15:00 PALF1
05116000SOURIS RIVER NR FOXHOLM, ND 10 13.17 1,840 26,400 2015-04-19 01:15:00 FOXN8
05122000SOURIS RIVER NR BANTRY, ND 11 11.93 1,760 30,000 2015-04-19 01:00:00 BANN8
03374100WHITE RIVER AT HAZLETON, IN 16 16.93 30,300 138,000 2015-04-19 01:45:00 HZNI3
03376500PATOKA RIVER NEAR PRINCETON, IN 18 18.78 4,200 18,700 2015-04-19 01:45:00 PNTI3
03304300OHIO RIVER AT NEWBURGH LOCK AND DAM, IN 38 44.97

 

  2015-04-19 01:00:00 NBGI3
03381700OHIO RIVER AT OLD SHAWNEETOWN, IL-KY 33 41.92 607,000 1,260,000 2015-04-19 00:30:00 SHNI2
02246500ST. JOHNS RIVER AT JACKSONVILLE, FL 2.5 11.19 3,650 120,000 2015-04-19 02:00:00 SJLF1
03384500OHIO RIVER AT DAM 51 AT GOLCONDA, IL 40 42.83

 

1,470,000 2015-04-19 02:00:00 GOLI2
02227500LITTLE SATILLA RIVER NEAR OFFERMAN, GA 9 9.55 2,200 38,000 2015-04-19 02:45:00 OFFG1
03286000HERRINGTON LAKE NEAR BURGIN, KY 750 750.50

 

  2015-04-19 03:00:00 DIXK2
07072500Black River at Black Rock, AR 14 14.79 16,100 190,000 2015-04-19 01:00:00 BKRA4
07076750 White River at Georgetown, AR 21 21.65 65,000 179,000 2015-04-19 01:00:00 GEOA4
07348700Bayou Dorcheat near Springhill, LA 11 12.01 1,190 36,700 2015-04-19 01:00:00 SPHL1
08030500Sabine Rv nr Ruliff, TX 24 24.37 15,500 121,000 2015-04-19 01:45:00 DWYT2
08032000Neches Rv nr Neches, TX 12 14.80 3,360 45,500 2015-04-19 01:30:00 NCST2
08040600Neches Rv nr Town Bluff, TX 64 67.38 17,700 120,000 2015-04-19 01:00:00 TBFT2
08038000Attoyac Bayou nr Chireno, TX 14 15.59 1,470 50,000 2015-04-19 01:30:00 ATBT2
03320000GREEN RIVER AT LOCK 2 AT CALHOUN, KY 23 26.29 43,700 208,000 2015-04-19 01:00:00 CALK2
07074850White River near Augusta, AR 26 31.75 54,900 262,000 2015-04-19 01:00:00 AUGA4
01193050CONNECTICUT RIVER AT MIDDLE HADDAM, CT 7 7.33 70,900   2015-04-19 01:55:00 MHDC3
08041700Pine Island Bayou nr Sour Lake, TX 25 28.13 3,870 48,800 2015-04-19 01:45:00 SOLT2
08012150Mermentau River At Mermentau, LA 4 4.62 13,500 58,000 2015-04-19 01:15:00 MRML1
08013000Calcasieu River nr Glenmora, LA 12 12.95 1,870 59,900 2015-04-19 01:45:00 GLML1
03303280OHIO RIVER AT CANNELTON DAM AT CANNELTON, IN 42 42.27

 

735,000 2015-04-19 02:00:00 CNNI3
01017000Aroostook River at Washburn, Maine 14 16.29 Ice 49,500 2015-04-19 03:00:00 WSHM1
03611000OHIO RIVER AT PADUCAH, KY 39 39.44

 

  2015-04-19 02:00:00 PAHK2
08117500San Bernard Rv nr Boling, TX 18 31.00 8,560 31,900 2015-04-19 02:00:00 BOLT2
07289350BIG BLACK RIVER AT WEST, MS 15 18.74 8,870 71,200 2015-04-19 01:45:00 WSTM6
07188838Little Sugar Creek near Pineville, MO 6 6.24 1,270 22,400 2015-04-19 01:15:00 LSGM7
08010000Bayou Des Cannes near Eunice, LA 16 16.52 2,520 11,900 2015-04-19 01:00:00 BDCL1
08164390Navidad Rv at Strane Pk nr Edna, TX 24 26.11 7,100 18,400 2015-04-19 01:15:00 LSNT2
08162600Tres Palacios Rv nr Midfield, TX 24 26.18 3,280 17,000 2015-04-19 01:30:00 MTPT2
08176500Guadalupe Rv at Victoria, TX 21 23.67 11,400 466,000 2015-04-19 01:15:00 VICT2
07386880Vermilion River at Surrey St. at Lafayette, LA 10 10.03 1,910 6,280 2015-04-19 01:15:00 VLSL1
08164000Lavaca Rv nr Edna, TX 21 23.43 9,340 150,000 2015-04-19 01:15:00 EDNT2
08164370Navidad Rv at Morales, TX 29 29.04

 

25,000 2015-04-19 02:00:00 MRAT2
08177520Guadalupe Rv nr Bloomington, TX 20 24.26 4,600 4,660 2015-04-19 01:00:00 DUPT2
08211520Oso Ck at Corpus Christi, TX 20 21.23 1,900 12,100 2015-04-19 01:15:00 OOST2
03322000OHIO RIVER AT EVANSVILLE, IN 42 42.05

 

1,410,000 2015-04-19 02:00:00 EVVI3
08189700Aransas Rv nr Skidmore, TX 13 14.72 1,510 82,800 2015-04-19 01:15:00 SKMT2
02326550AUCILLA RIVER NR MOUTH NEAR NUTALL RISE, FL 4.6 6.99

 

10,500 2015-04-19 02:30:00 NUTF1
08164450Sandy Ck nr Ganado, TX 18 18.15 6,070 63,400 2015-04-19 01:15:00 CODT2